createdAt,value
2023-02-26T00:00:32.660Z,100.00
2023-02-26T00:02:36.762Z,100.00
2023-02-26T00:04:39.415Z,100.00
2023-02-26T00:06:54.711Z,100.00
2023-02-26T00:08:59.982Z,100.00
2023-02-26T00:11:06.299Z,100.00
2023-02-26T00:13:11.441Z,99.68
2023-02-26T00:15:15.247Z,99.00
2023-02-26T00:17:26.890Z,99.43
2023-02-26T00:19:29.700Z,99.75
2023-02-26T00:21:33.551Z,100.00
2023-02-26T00:23:36.168Z,100.00
2023-02-26T00:25:38.655Z,100.00
2023-02-26T00:27:41.515Z,100.00
2023-02-26T00:29:44.360Z,99.82
2023-02-26T00:31:47.303Z,99.96
2023-02-26T00:33:50.360Z,99.98
2023-02-26T00:36:01.714Z,100.00
2023-02-26T00:38:11.234Z,100.00
2023-02-26T00:40:41.495Z,100.00
2023-02-26T00:42:44.257Z,100.00
2023-02-26T00:44:47.260Z,100.00
2023-02-26T00:47:07.887Z,100.00
2023-02-26T00:49:28.732Z,100.00
2023-02-26T00:51:53.722Z,100.00
2023-02-26T00:54:16.642Z,100.00
2023-02-26T00:56:19.275Z,100.00
2023-02-26T00:58:21.852Z,100.00
2023-02-26T01:00:24.518Z,99.99
2023-02-26T01:02:27.439Z,100.00
2023-02-26T01:04:30.230Z,99.87
2023-02-26T01:06:35.265Z,99.65
2023-02-26T01:08:53.638Z,99.85
2023-02-26T01:10:56.330Z,99.94
2023-02-26T01:12:59.112Z,99.88
2023-02-26T01:15:01.859Z,100.00
2023-02-26T01:17:34.307Z,100.00
2023-02-26T01:20:11.335Z,100.00
2023-02-26T01:22:17.422Z,100.00
2023-02-26T01:24:23.336Z,100.00
2023-02-26T01:26:29.597Z,100.00
2023-02-26T01:28:32.549Z,100.00
2023-02-26T01:30:35.981Z,100.00
2023-02-26T01:32:59.721Z,100.00
2023-02-26T01:35:09.975Z,100.00
2023-02-26T01:37:47.381Z,100.00
2023-02-26T01:40:08.880Z,100.00
2023-02-26T01:42:23.767Z,100.00
2023-02-26T01:44:53.835Z,100.00
2023-02-26T01:47:30.189Z,100.00
2023-02-26T01:49:33.499Z,100.00
2023-02-26T01:51:52.901Z,100.00
2023-02-26T01:53:55.357Z,100.00
2023-02-26T01:56:02.922Z,100.00
2023-02-26T01:58:06.037Z,100.00
2023-02-26T02:00:10.014Z,100.00
2023-02-26T02:02:17.051Z,100.00
2023-02-26T02:04:20.431Z,100.00
2023-02-26T02:06:26.799Z,100.00
2023-02-26T02:08:30.910Z,100.00
2023-02-26T02:10:33.385Z,100.00
2023-02-26T02:12:40.763Z,100.00
2023-02-26T02:14:49.473Z,100.00
2023-02-26T02:16:57.802Z,100.00
2023-02-26T02:19:39.300Z,100.00
2023-02-26T02:22:18.935Z,100.00
2023-02-26T02:24:46.508Z,100.00
2023-02-26T02:26:51.552Z,100.00
2023-02-26T02:28:56.713Z,100.00
2023-02-26T02:31:12.779Z,100.00
2023-02-26T02:33:20.020Z,100.00
2023-02-26T02:35:38.846Z,100.00
2023-02-26T02:38:27.981Z,100.00
2023-02-26T02:40:35.439Z,100.00
2023-02-26T02:43:03.857Z,100.00
2023-02-26T02:45:25.676Z,100.00
2023-02-26T02:47:31.512Z,100.00
2023-02-26T02:49:45.151Z,100.00
2023-02-26T02:51:54.334Z,100.00
2023-02-26T02:54:04.045Z,100.00
2023-02-26T02:56:18.122Z,100.00
2023-02-26T02:58:25.577Z,100.00
2023-02-26T03:00:31.752Z,100.00
2023-02-26T03:02:37.811Z,100.00
2023-02-26T03:04:41.833Z,100.00
2023-02-26T03:06:46.925Z,100.00
2023-02-26T03:08:50.952Z,100.00
2023-02-26T03:10:53.680Z,100.00
2023-02-26T03:12:56.576Z,100.00
2023-02-26T03:15:01.011Z,100.00
2023-02-26T03:17:20.667Z,100.00
2023-02-26T03:19:35.264Z,100.00
2023-02-26T03:22:05.097Z,100.00
2023-02-26T03:24:23.718Z,100.00
2023-02-26T03:26:47.336Z,100.00
2023-02-26T03:29:02.783Z,100.00
2023-02-26T03:31:18.100Z,100.00
2023-02-26T03:33:31.531Z,100.00
2023-02-26T03:35:52.193Z,100.00
2023-02-26T03:37:59.463Z,100.00
2023-02-26T03:40:07.080Z,100.00
2023-02-26T03:42:35.554Z,100.00
2023-02-26T03:44:44.787Z,100.00
2023-02-26T03:46:52.943Z,100.00
2023-02-26T03:49:00.074Z,100.00
2023-02-26T03:51:11.699Z,100.00
2023-02-26T03:53:39.040Z,100.00
2023-02-26T03:55:56.794Z,100.00
2023-02-26T03:57:59.329Z,100.00
2023-02-26T04:00:02.090Z,100.00
2023-02-26T04:02:17.811Z,100.00
2023-02-26T04:04:55.265Z,100.00
2023-02-26T04:06:58.111Z,100.00
2023-02-26T04:09:02.259Z,100.00
2023-02-26T04:11:25.889Z,100.00
2023-02-26T04:13:28.562Z,100.00
2023-02-26T04:15:31.067Z,100.00
2023-02-26T04:17:33.612Z,100.00
2023-02-26T04:19:36.181Z,100.00
2023-02-26T04:21:38.739Z,100.00
2023-02-26T04:23:41.969Z,100.00
2023-02-26T04:25:44.410Z,100.00
2023-02-26T04:27:46.936Z,100.00
2023-02-26T04:29:49.544Z,100.00
2023-02-26T04:31:52.279Z,100.00
2023-02-26T04:33:54.923Z,100.00
2023-02-26T04:35:57.735Z,100.00
2023-02-26T04:38:00.267Z,100.00
2023-02-26T04:40:02.797Z,100.00
2023-02-26T04:42:05.753Z,100.00
2023-02-26T04:44:08.342Z,100.00
2023-02-26T04:46:11.144Z,100.00
2023-02-26T04:48:15.033Z,100.00
2023-02-26T04:50:17.696Z,100.00
2023-02-26T04:52:20.386Z,100.00
2023-02-26T04:54:23.019Z,100.00
2023-02-26T04:56:26.551Z,100.00
2023-02-26T04:58:29.276Z,100.00
2023-02-26T05:00:31.886Z,100.00
2023-02-26T05:02:34.718Z,100.00
2023-02-26T05:04:37.230Z,100.00
2023-02-26T05:06:39.829Z,100.00
2023-02-26T05:08:43.237Z,100.00
2023-02-26T05:10:46.438Z,100.00
2023-02-26T05:12:48.972Z,100.00
2023-02-26T05:14:51.507Z,100.00
2023-02-26T05:16:54.133Z,100.00
2023-02-26T05:18:56.690Z,100.00
2023-02-26T05:20:59.456Z,100.00
2023-02-26T05:23:02.177Z,100.00
2023-02-26T05:25:06.394Z,98.80
2023-02-26T05:27:10.246Z,98.47
2023-02-26T05:29:12.991Z,98.68
2023-02-26T05:31:16.159Z,98.26
2023-02-26T05:33:19.667Z,97.54
2023-02-26T05:35:22.244Z,96.96
2023-02-26T05:37:24.757Z,96.63
2023-02-26T05:39:27.327Z,97.66
2023-02-26T05:41:29.889Z,98.59
2023-02-26T05:43:33.787Z,99.00
2023-02-26T05:45:36.363Z,99.03
2023-02-26T05:47:38.989Z,99.39
2023-02-26T05:49:41.530Z,99.60
2023-02-26T05:51:44.171Z,99.99
2023-02-26T05:53:46.820Z,99.09
2023-02-26T05:55:49.610Z,98.98
2023-02-26T05:57:52.354Z,98.34
2023-02-26T05:59:55.131Z,97.93
2023-02-26T06:01:57.804Z,97.56
2023-02-26T06:04:01.826Z,97.55
2023-02-26T06:06:04.877Z,97.54
2023-02-26T06:08:07.521Z,98.06
2023-02-26T06:10:10.949Z,98.04
2023-02-26T06:12:13.546Z,98.24
2023-02-26T06:14:17.211Z,98.83
2023-02-26T06:16:21.090Z,98.18
2023-02-26T06:18:23.932Z,99.07
2023-02-26T06:20:26.448Z,98.64
2023-02-26T06:22:29.308Z,98.39
2023-02-26T06:24:31.931Z,98.34
2023-02-26T06:26:34.722Z,98.76
2023-02-26T06:28:37.500Z,98.51
2023-02-26T06:30:40.328Z,99.38
2023-02-26T06:32:45.223Z,99.92
2023-02-26T06:34:47.849Z,100.00
2023-02-26T06:36:50.424Z,100.00
2023-02-26T06:38:53.062Z,100.00
2023-02-26T06:40:55.985Z,100.00
2023-02-26T06:42:58.473Z,100.00
2023-02-26T06:45:01.015Z,100.00
2023-02-26T06:47:03.763Z,100.00
2023-02-26T06:49:06.515Z,100.00
2023-02-26T06:51:09.953Z,100.00
2023-02-26T06:53:12.589Z,100.00
2023-02-26T06:55:15.182Z,100.00
2023-02-26T06:57:17.730Z,100.00
2023-02-26T06:59:20.304Z,100.00
2023-02-26T07:01:24.401Z,100.00
2023-02-26T07:03:27.018Z,100.00
2023-02-26T07:05:29.498Z,100.00
2023-02-26T07:07:32.208Z,100.00
2023-02-26T07:09:34.809Z,100.00
2023-02-26T07:11:37.374Z,100.00
2023-02-26T07:13:39.882Z,100.00
2023-02-26T07:15:44.829Z,100.00
2023-02-26T07:17:48.606Z,100.00
2023-02-26T07:19:52.509Z,99.58
2023-02-26T07:21:56.234Z,99.83
2023-02-26T07:23:58.722Z,98.86
2023-02-26T07:26:02.376Z,98.42
2023-02-26T07:28:05.282Z,97.59
2023-02-26T07:30:09.138Z,96.82
2023-02-26T07:32:11.783Z,96.65
2023-02-26T07:34:15.058Z,96.72
2023-02-26T07:36:17.830Z,96.64
2023-02-26T07:38:20.873Z,96.68
2023-02-26T07:40:23.514Z,96.23
2023-02-26T07:42:26.214Z,95.65
2023-02-26T07:44:28.713Z,96.61
2023-02-26T07:46:31.381Z,96.64
2023-02-26T07:48:34.176Z,96.19
2023-02-26T07:50:36.886Z,94.65
2023-02-26T07:52:39.938Z,93.39
2023-02-26T07:54:42.777Z,94.32
2023-02-26T07:56:45.428Z,94.10
2023-02-26T07:58:48.053Z,94.30
2023-02-26T08:00:52.795Z,94.54
2023-02-26T08:02:55.616Z,95.07
2023-02-26T08:04:58.346Z,95.74
2023-02-26T08:07:01.783Z,95.79
2023-02-26T08:09:05.592Z,95.85
2023-02-26T08:11:08.132Z,96.03
2023-02-26T08:13:10.973Z,96.86
2023-02-26T08:15:14.641Z,97.16
2023-02-26T08:17:17.284Z,96.90
2023-02-26T08:19:19.948Z,95.55
2023-02-26T08:21:22.548Z,95.42
2023-02-26T08:23:26.871Z,95.14
2023-02-26T08:25:29.463Z,95.51
2023-02-26T08:27:32.053Z,95.60
2023-02-26T08:29:34.602Z,95.40
2023-02-26T08:31:37.445Z,95.21
2023-02-26T08:33:40.256Z,96.45
2023-02-26T08:35:42.726Z,95.63
2023-02-26T08:37:45.366Z,94.34
2023-02-26T08:39:47.964Z,94.98
2023-02-26T08:41:50.563Z,94.37
2023-02-26T08:43:53.263Z,94.05
2023-02-26T08:45:57.621Z,94.83
2023-02-26T08:48:00.268Z,95.45
2023-02-26T08:50:03.417Z,96.46
2023-02-26T08:52:06.692Z,96.68
2023-02-26T08:54:09.966Z,96.33
2023-02-26T08:56:12.828Z,95.76
2023-02-26T08:58:15.499Z,95.72
2023-02-26T09:00:19.474Z,95.59
2023-02-26T09:02:22.074Z,95.75
2023-02-26T09:04:24.652Z,96.83
2023-02-26T09:06:27.821Z,96.35
2023-02-26T09:08:34.098Z,96.68
2023-02-26T09:10:36.721Z,96.67
2023-02-26T09:12:39.593Z,96.30
2023-02-26T09:14:42.723Z,97.34
2023-02-26T09:16:46.778Z,97.48
2023-02-26T09:18:49.795Z,98.34
2023-02-26T09:20:52.532Z,98.75
2023-02-26T09:22:55.116Z,99.09
2023-02-26T09:24:58.154Z,100.00
2023-02-26T09:27:02.022Z,100.00
2023-02-26T09:29:17.653Z,100.00
2023-02-26T09:31:20.621Z,100.00
2023-02-26T09:33:23.841Z,100.00
2023-02-26T09:35:26.578Z,100.00
2023-02-26T09:37:29.206Z,100.00
2023-02-26T09:39:32.985Z,100.00
2023-02-26T09:41:44.398Z,100.00
2023-02-26T09:44:16.737Z,100.00
2023-02-26T09:46:44.403Z,100.00
2023-02-26T09:48:49.934Z,100.00
2023-02-26T09:50:56.824Z,100.00
2023-02-26T09:53:22.763Z,100.00
2023-02-26T09:55:28.321Z,100.00
2023-02-26T09:57:37.065Z,100.00
2023-02-26T09:59:39.803Z,100.00
2023-02-26T10:01:54.184Z,100.00
2023-02-26T10:04:09.074Z,100.00
2023-02-26T10:06:21.729Z,100.00
2023-02-26T10:08:29.960Z,100.00
2023-02-26T10:10:36.348Z,100.00
2023-02-26T10:12:43.001Z,100.00
2023-02-26T10:15:01.244Z,100.00
2023-02-26T10:17:34.982Z,100.00
2023-02-26T10:19:42.510Z,100.00
2023-02-26T10:22:06.867Z,100.00
2023-02-26T10:24:29.036Z,100.00
2023-02-26T10:26:58.941Z,100.00
2023-02-26T10:29:22.868Z,100.00
2023-02-26T10:31:52.081Z,100.00
2023-02-26T10:34:02.730Z,100.00
2023-02-26T10:36:25.326Z,100.00
2023-02-26T10:38:31.451Z,100.00
2023-02-26T10:40:52.247Z,100.00
2023-02-26T10:43:18.616Z,100.00
2023-02-26T10:45:45.945Z,100.00
2023-02-26T10:48:37.266Z,100.00
2023-02-26T10:50:46.809Z,100.00
2023-02-26T10:52:52.125Z,100.00
2023-02-26T10:55:25.876Z,100.00
2023-02-26T10:57:34.704Z,100.00
2023-02-26T10:59:37.511Z,100.00
2023-02-26T11:01:42.476Z,100.00
2023-02-26T11:03:49.906Z,100.00
2023-02-26T11:05:52.590Z,100.00
2023-02-26T11:08:01.712Z,100.00
2023-02-26T11:10:04.902Z,100.00
2023-02-26T11:12:18.077Z,100.00
2023-02-26T11:14:22.235Z,100.00
2023-02-26T11:16:26.324Z,100.00
2023-02-26T11:18:36.659Z,100.00
2023-02-26T11:20:42.763Z,100.00
2023-02-26T11:22:52.600Z,100.00
2023-02-26T11:24:57.316Z,100.00
2023-02-26T11:27:04.426Z,100.00
2023-02-26T11:29:07.106Z,100.00
2023-02-26T11:31:12.237Z,100.00
2023-02-26T11:33:22.201Z,100.00
2023-02-26T11:35:26.748Z,100.00
2023-02-26T11:37:38.247Z,100.00
2023-02-26T11:39:41.124Z,100.00
2023-02-26T11:41:47.182Z,100.00
2023-02-26T11:43:58.993Z,100.00
2023-02-26T11:46:03.281Z,100.00
2023-02-26T11:48:20.294Z,100.00
2023-02-26T11:50:23.877Z,100.00
2023-02-26T11:52:42.271Z,100.00
2023-02-26T11:54:49.136Z,100.00
2023-02-26T11:56:51.863Z,100.00
2023-02-26T11:58:58.127Z,100.00
2023-02-26T12:01:03.047Z,100.00
2023-02-26T12:03:12.807Z,100.00
2023-02-26T12:05:17.834Z,100.00
2023-02-26T12:07:22.104Z,100.00
2023-02-26T12:09:26.650Z,100.00
2023-02-26T12:11:56.744Z,100.00
2023-02-26T12:14:20.861Z,100.00
2023-02-26T12:16:40.655Z,100.00
2023-02-26T12:18:43.169Z,100.00
2023-02-26T12:21:02.814Z,100.00
2023-02-26T12:23:14.376Z,100.00
2023-02-26T12:25:22.687Z,100.00
2023-02-26T12:28:06.559Z,100.00
2023-02-26T12:30:48.745Z,100.00
2023-02-26T12:33:23.544Z,100.00
2023-02-26T12:35:43.029Z,100.00
2023-02-26T12:38:06.877Z,100.00
2023-02-26T12:40:21.528Z,100.00
2023-02-26T12:43:02.056Z,100.00
2023-02-26T12:45:22.971Z,100.00
2023-02-26T12:48:11.150Z,100.00
2023-02-26T12:50:34.720Z,100.00
2023-02-26T12:52:58.928Z,100.00
2023-02-26T12:55:10.213Z,100.00
2023-02-26T12:57:41.243Z,100.00
2023-02-26T13:00:02.388Z,100.00
2023-02-26T13:02:28.394Z,100.00
2023-02-26T13:05:18.648Z,100.00
2023-02-26T13:07:39.340Z,100.00
2023-02-26T13:09:47.741Z,100.00
2023-02-26T13:12:14.825Z,100.00
2023-02-26T13:14:38.855Z,100.00
2023-02-26T13:17:04.013Z,100.00
2023-02-26T13:19:15.196Z,100.00
2023-02-26T13:21:26.739Z,100.00
2023-02-26T13:23:58.006Z,100.00
2023-02-26T13:26:07.780Z,100.00
2023-02-26T13:28:40.528Z,100.00
2023-02-26T13:30:52.347Z,100.00
2023-02-26T13:32:58.711Z,100.00
2023-02-26T13:35:26.232Z,100.00
2023-02-26T13:37:53.658Z,100.00
2023-02-26T13:40:11.814Z,100.00
2023-02-26T13:42:33.521Z,100.00
2023-02-26T13:44:54.921Z,100.00
2023-02-26T13:46:57.446Z,100.00
2023-02-26T13:49:12.208Z,100.00
2023-02-26T13:51:29.781Z,100.00
2023-02-26T13:53:47.969Z,100.00
2023-02-26T13:55:52.952Z,100.00
2023-02-26T13:57:57.052Z,100.00
2023-02-26T14:00:17.770Z,100.00
2023-02-26T14:02:21.319Z,100.00
2023-02-26T14:04:33.505Z,100.00
2023-02-26T14:06:43.821Z,100.00
2023-02-26T14:08:49.785Z,100.00
2023-02-26T14:11:25.279Z,100.00
2023-02-26T14:13:40.515Z,100.00
2023-02-26T14:16:24.129Z,100.00
2023-02-26T14:18:37.775Z,100.00
2023-02-26T14:20:40.394Z,100.00
2023-02-26T14:22:47.819Z,100.00
2023-02-26T14:25:08.944Z,100.00
2023-02-26T14:27:11.442Z,100.00
2023-02-26T14:29:21.939Z,100.00
2023-02-26T14:31:28.835Z,100.00
2023-02-26T14:33:37.720Z,100.00
2023-02-26T14:35:45.135Z,100.00
2023-02-26T14:38:20.162Z,100.00
2023-02-26T14:40:25.737Z,100.00
2023-02-26T14:42:35.044Z,100.00
2023-02-26T14:44:44.054Z,100.00
2023-02-26T14:46:48.358Z,100.00
2023-02-26T14:48:51.334Z,100.00
2023-02-26T14:51:17.165Z,100.00
2023-02-26T14:53:46.887Z,100.00
2023-02-26T14:56:13.915Z,100.00
2023-02-26T14:58:31.496Z,100.00
2023-02-26T15:00:43.549Z,100.00
2023-02-26T15:02:45.899Z,100.00
2023-02-26T15:05:00.287Z,100.00
2023-02-26T15:07:17.415Z,100.00
2023-02-26T15:09:27.470Z,100.00
2023-02-26T15:12:09.398Z,100.00
2023-02-26T15:14:42.911Z,100.00
2023-02-26T15:17:13.638Z,100.00
2023-02-26T15:19:32.343Z,100.00
2023-02-26T15:21:53.256Z,100.00
2023-02-26T15:23:58.709Z,100.00
2023-02-26T15:26:05.373Z,100.00
2023-02-26T15:28:13.841Z,100.00
2023-02-26T15:30:18.001Z,100.00
2023-02-26T15:32:26.973Z,100.00
2023-02-26T15:34:31.025Z,100.00
2023-02-26T15:36:33.657Z,100.00
2023-02-26T15:39:09.305Z,100.00
2023-02-26T15:41:12.977Z,100.00
2023-02-26T15:43:21.601Z,100.00
2023-02-26T15:45:36.273Z,100.00
2023-02-26T15:47:39.494Z,100.00
2023-02-26T15:49:48.471Z,100.00
2023-02-26T15:51:53.556Z,100.00
2023-02-26T15:53:58.230Z,100.00
2023-02-26T15:56:05.376Z,100.00
2023-02-26T15:58:08.885Z,100.00
2023-02-26T16:00:17.685Z,100.00
2023-02-26T16:02:29.832Z,100.00
2023-02-26T16:04:35.922Z,100.00
2023-02-26T16:06:42.280Z,100.00
2023-02-26T16:08:44.907Z,100.00
2023-02-26T16:10:47.849Z,100.00
2023-02-26T16:12:53.731Z,100.00
2023-02-26T16:15:05.940Z,100.00
2023-02-26T16:17:14.874Z,100.00
2023-02-26T16:19:22.161Z,100.00
2023-02-26T16:21:29.931Z,100.00
2023-02-26T16:23:46.916Z,100.00
2023-02-26T16:25:54.818Z,100.00
2023-02-26T16:28:07.018Z,100.00
2023-02-26T16:30:24.274Z,100.00
2023-02-26T16:32:30.459Z,100.00
2023-02-26T16:34:40.391Z,100.00
2023-02-26T16:36:43.155Z,100.00
2023-02-26T16:39:10.011Z,100.00
2023-02-26T16:41:14.443Z,100.00
2023-02-26T16:43:50.980Z,100.00
2023-02-26T16:45:59.858Z,100.00
2023-02-26T16:48:17.366Z,100.00
2023-02-26T16:50:27.093Z,100.00
2023-02-26T16:52:29.825Z,100.00
2023-02-26T16:54:40.906Z,100.00
2023-02-26T16:56:46.705Z,100.00
2023-02-26T16:59:03.102Z,100.00
2023-02-26T17:01:12.887Z,100.00
2023-02-26T17:03:18.792Z,100.00
2023-02-26T17:05:25.503Z,100.00
2023-02-26T17:07:32.767Z,100.00
2023-02-26T17:09:42.355Z,100.00
2023-02-26T17:11:46.185Z,100.00
2023-02-26T17:14:19.602Z,100.00
2023-02-26T17:16:23.489Z,100.00
2023-02-26T17:18:27.061Z,100.00
2023-02-26T17:20:31.287Z,100.00
2023-02-26T17:22:34.406Z,100.00
2023-02-26T17:24:44.791Z,100.00
2023-02-26T17:26:48.906Z,100.00
2023-02-26T17:28:52.708Z,100.00
2023-02-26T17:30:57.083Z,100.00
2023-02-26T17:33:02.751Z,100.00
2023-02-26T17:35:06.610Z,100.00
2023-02-26T17:37:13.201Z,100.00
2023-02-26T17:39:16.487Z,100.00
2023-02-26T17:41:19.268Z,100.00
2023-02-26T17:43:23.190Z,100.00
2023-02-26T17:45:26.444Z,100.00
2023-02-26T17:47:28.995Z,100.00
2023-02-26T17:49:31.853Z,100.00
2023-02-26T17:51:34.645Z,100.00
2023-02-26T17:53:41.114Z,100.00
2023-02-26T17:55:45.690Z,100.00
2023-02-26T17:57:48.575Z,100.00
2023-02-26T17:59:51.855Z,100.00
2023-02-26T18:01:55.128Z,100.00
2023-02-26T18:03:58.341Z,100.00
2023-02-26T18:06:01.932Z,100.00
2023-02-26T18:08:06.854Z,100.00
2023-02-26T18:10:18.495Z,100.00
2023-02-26T18:12:23.293Z,100.00
2023-02-26T18:14:26.699Z,100.00
2023-02-26T18:16:33.950Z,100.00
2023-02-26T18:18:38.124Z,100.00
2023-02-26T18:20:41.151Z,100.00
2023-02-26T18:22:44.358Z,100.00
2023-02-26T18:24:46.962Z,100.00
2023-02-26T18:26:49.935Z,100.00
2023-02-26T18:28:52.723Z,100.00
2023-02-26T18:30:56.950Z,100.00
2023-02-26T18:32:59.593Z,100.00
2023-02-26T18:35:02.151Z,100.00
2023-02-26T18:37:07.049Z,100.00
2023-02-26T18:39:16.293Z,100.00
2023-02-26T18:41:19.198Z,100.00
2023-02-26T18:43:22.099Z,100.00
2023-02-26T18:45:24.668Z,100.00
2023-02-26T18:47:27.422Z,100.00
2023-02-26T18:49:30.609Z,100.00
2023-02-26T18:51:34.642Z,100.00
2023-02-26T18:53:37.805Z,100.00
2023-02-26T18:55:40.362Z,100.00
2023-02-26T18:57:43.273Z,100.00
2023-02-26T18:59:45.912Z,100.00
2023-02-26T19:01:48.769Z,100.00
2023-02-26T19:03:51.406Z,100.00
2023-02-26T19:06:03.036Z,100.00
2023-02-26T19:08:06.299Z,100.00
2023-02-26T19:10:13.611Z,100.00
2023-02-26T19:12:20.218Z,100.00
2023-02-26T19:14:23.856Z,100.00
2023-02-26T19:16:27.866Z,100.00
2023-02-26T19:18:30.539Z,100.00
2023-02-26T19:20:33.106Z,100.00
2023-02-26T19:22:35.788Z,100.00
2023-02-26T19:24:38.489Z,100.00
2023-02-26T19:26:42.769Z,100.00
2023-02-26T19:28:45.912Z,100.00
2023-02-26T19:30:48.397Z,100.00
2023-02-26T19:32:51.895Z,100.00
2023-02-26T19:34:54.615Z,100.00
2023-02-26T19:36:57.386Z,100.00
2023-02-26T19:39:01.765Z,100.00
2023-02-26T19:41:04.514Z,100.00
2023-02-26T19:43:06.997Z,100.00
2023-02-26T19:45:10.586Z,100.00
2023-02-26T19:47:13.209Z,100.00
2023-02-26T19:49:16.195Z,100.00
2023-02-26T19:51:19.022Z,100.00
2023-02-26T19:53:21.874Z,100.00
2023-02-26T19:55:24.393Z,100.00
2023-02-26T19:57:28.032Z,100.00
2023-02-26T19:59:30.641Z,100.00
2023-02-26T20:01:33.253Z,100.00
2023-02-26T20:03:35.980Z,100.00
2023-02-26T20:05:38.541Z,100.00
2023-02-26T20:07:41.017Z,100.00
2023-02-26T20:09:43.570Z,100.00
2023-02-26T20:11:46.400Z,100.00
2023-02-26T20:13:48.876Z,100.00
2023-02-26T20:15:53.528Z,100.00
2023-02-26T20:17:56.485Z,100.00
2023-02-26T20:19:59.006Z,100.00
2023-02-26T20:22:01.557Z,100.00
2023-02-26T20:24:06.108Z,100.00
2023-02-26T20:26:13.865Z,100.00
2023-02-26T20:28:18.417Z,100.00
2023-02-26T20:30:21.210Z,100.00
2023-02-26T20:32:24.275Z,100.00
2023-02-26T20:34:27.407Z,100.00
2023-02-26T20:36:30.000Z,100.00
2023-02-26T20:38:32.683Z,100.00
2023-02-26T20:40:35.216Z,100.00
2023-02-26T20:42:38.081Z,100.00
2023-02-26T20:44:40.732Z,100.00
2023-02-26T20:46:43.520Z,100.00
2023-02-26T20:48:46.084Z,100.00
2023-02-26T20:50:49.788Z,100.00
2023-02-26T20:52:52.368Z,100.00
2023-02-26T20:54:54.980Z,100.00
2023-02-26T20:56:57.556Z,100.00
2023-02-26T20:59:00.438Z,100.00
2023-02-26T21:01:02.974Z,100.00
2023-02-26T21:03:05.658Z,100.00
2023-02-26T21:05:09.147Z,100.00
2023-02-26T21:07:17.691Z,100.00
2023-02-26T21:09:20.284Z,100.00
2023-02-26T21:11:23.650Z,100.00
2023-02-26T21:13:26.310Z,100.00
2023-02-26T21:15:28.851Z,100.00
2023-02-26T21:17:32.569Z,100.00
2023-02-26T21:19:35.279Z,100.00
2023-02-26T21:21:37.800Z,100.00
2023-02-26T21:23:40.276Z,100.00
2023-02-26T21:25:44.384Z,100.00
2023-02-26T21:27:47.167Z,100.00
2023-02-26T21:29:49.839Z,100.00
2023-02-26T21:31:53.814Z,100.00
2023-02-26T21:33:56.882Z,100.00
2023-02-26T21:35:59.706Z,100.00
2023-02-26T21:38:02.333Z,100.00
2023-02-26T21:40:06.734Z,100.00
2023-02-26T21:42:13.060Z,100.00
2023-02-26T21:44:15.674Z,100.00
2023-02-26T21:46:18.150Z,100.00
2023-02-26T21:48:20.649Z,100.00
2023-02-26T21:50:23.298Z,100.00
2023-02-26T21:52:28.967Z,100.00
2023-02-26T21:54:31.775Z,100.00
2023-02-26T21:56:34.412Z,100.00
2023-02-26T21:58:36.927Z,100.00
2023-02-26T22:00:39.448Z,100.00
2023-02-26T22:02:44.006Z,100.00
2023-02-26T22:04:46.872Z,100.00
2023-02-26T22:06:49.410Z,100.00
2023-02-26T22:08:52.506Z,100.00
2023-02-26T22:10:55.036Z,100.00
2023-02-26T22:12:57.613Z,100.00
2023-02-26T22:15:00.347Z,100.00
2023-02-26T22:17:02.838Z,100.00
2023-02-26T22:19:05.900Z,100.00
2023-02-26T22:21:08.521Z,100.00
2023-02-26T22:23:11.088Z,100.00
2023-02-26T22:25:14.102Z,100.00
2023-02-26T22:27:16.547Z,100.00
2023-02-26T22:29:19.497Z,100.00
2023-02-26T22:31:22.342Z,100.00
2023-02-26T22:33:25.391Z,100.00
2023-02-26T22:35:28.540Z,100.00
2023-02-26T22:37:31.806Z,100.00
2023-02-26T22:39:34.383Z,100.00
2023-02-26T22:41:37.361Z,100.00
2023-02-26T22:43:40.635Z,100.00
2023-02-26T22:45:43.173Z,100.00
2023-02-26T22:47:48.059Z,100.00
2023-02-26T22:49:50.674Z,100.00
2023-02-26T22:51:53.172Z,100.00
2023-02-26T22:53:56.258Z,100.00
2023-02-26T22:55:58.838Z,100.00
2023-02-26T22:58:01.393Z,100.00
2023-02-26T23:00:11.522Z,100.00
2023-02-26T23:02:14.451Z,100.00
2023-02-26T23:04:17.260Z,100.00
2023-02-26T23:06:19.772Z,100.00
2023-02-26T23:08:22.276Z,100.00
2023-02-26T23:10:24.831Z,100.00
2023-02-26T23:12:27.375Z,100.00
2023-02-26T23:14:29.833Z,100.00
2023-02-26T23:16:32.404Z,100.00
2023-02-26T23:18:36.573Z,100.00
2023-02-26T23:20:39.334Z,100.00
2023-02-26T23:22:43.909Z,100.00
2023-02-26T23:24:46.827Z,100.00
2023-02-26T23:26:49.318Z,100.00
2023-02-26T23:28:52.300Z,100.00
2023-02-26T23:30:54.853Z,100.00
2023-02-26T23:32:57.380Z,100.00
2023-02-26T23:34:59.994Z,100.00
2023-02-26T23:37:02.531Z,100.00
2023-02-26T23:39:06.670Z,100.00
2023-02-26T23:41:09.322Z,100.00
2023-02-26T23:43:11.873Z,100.00
2023-02-26T23:45:14.462Z,100.00
2023-02-26T23:47:16.979Z,100.00
2023-02-26T23:49:19.507Z,100.00
2023-02-26T23:51:22.508Z,100.00
2023-02-26T23:53:25.064Z,100.00
2023-02-26T23:55:27.593Z,100.00
2023-02-26T23:57:30.466Z,100.00
2023-02-26T23:59:33.108Z,100.00
